createdAt,value
2018-12-12T00:00:22.570Z,100137.31
2018-12-12T00:02:48.787Z,100135.42
2018-12-12T00:05:15.107Z,100134.67
2018-12-12T00:07:41.267Z,100131.41
2018-12-12T00:10:10.458Z,100126.13
2018-12-12T00:12:37.200Z,100132.97
2018-12-12T00:15:04.724Z,100133.42
2018-12-12T00:17:31.018Z,100137.27
2018-12-12T00:19:57.309Z,100133.72
2018-12-12T00:22:23.560Z,100135.45
2018-12-12T00:24:49.673Z,100129.45
2018-12-12T00:27:15.907Z,100138.44
2018-12-12T00:29:42.030Z,100134.42
2018-12-12T00:32:08.326Z,100135.20
2018-12-12T00:34:34.481Z,100137.20
2018-12-12T00:37:00.715Z,100141.37
2018-12-12T00:39:26.950Z,100134.81
2018-12-12T00:41:54.063Z,100137.00
2018-12-12T00:44:20.346Z,100138.97
2018-12-12T00:46:46.706Z,100141.97
2018-12-12T00:49:12.946Z,100149.11
2018-12-12T00:51:39.287Z,100152.61
2018-12-12T00:54:05.840Z,100157.17
2018-12-12T00:56:32.031Z,100148.75
2018-12-12T00:58:58.163Z,100160.72
2018-12-12T01:01:24.458Z,100159.88
2018-12-12T01:03:50.545Z,100155.21
2018-12-12T01:06:16.757Z,100153.08
2018-12-12T01:08:43.110Z,100161.70
2018-12-12T01:11:15.771Z,100166.80
2018-12-12T01:13:41.864Z,100171.77
2018-12-12T01:16:08.059Z,100181.53
2018-12-12T01:18:34.308Z,100176.40
2018-12-12T01:21:00.430Z,100176.55
2018-12-12T01:23:26.537Z,100180.81
2018-12-12T01:25:52.796Z,100177.65
2018-12-12T01:28:18.885Z,100190.93
2018-12-12T01:30:45.301Z,100184.66
2018-12-12T01:33:11.459Z,100183.60
2018-12-12T01:35:37.673Z,100185.41
2018-12-12T01:38:03.863Z,100179.64
2018-12-12T01:40:30.265Z,100184.20
2018-12-12T01:42:56.393Z,100188.59
2018-12-12T01:45:22.634Z,100181.08
2018-12-12T01:47:48.785Z,100179.13
2018-12-12T01:50:15.020Z,100192.45
2018-12-12T01:52:41.105Z,100185.66
2018-12-12T01:55:07.349Z,100195.91
2018-12-12T01:57:33.600Z,100199.34
2018-12-12T01:59:59.854Z,100202.93
2018-12-12T02:02:26.077Z,100192.87
2018-12-12T02:04:52.328Z,100191.69
2018-12-12T02:07:18.996Z,100200.25
2018-12-12T02:09:45.222Z,100205.78
2018-12-12T02:12:12.320Z,100206.77
2018-12-12T02:14:38.487Z,100208.11
2018-12-12T02:17:04.635Z,100209.36
2018-12-12T02:19:30.930Z,100210.48
2018-12-12T02:21:57.947Z,100209.89
2018-12-12T02:24:24.076Z,100209.08
2018-12-12T02:26:50.197Z,100218.73
2018-12-12T02:29:16.445Z,100224.88
2018-12-12T02:31:42.601Z,100218.91
2018-12-12T02:34:08.730Z,100227.36
2018-12-12T02:36:34.870Z,100224.09
2018-12-12T02:39:01.083Z,100227.81
2018-12-12T02:41:27.206Z,100234.95
2018-12-12T02:43:53.543Z,100225.08
2018-12-12T02:46:19.988Z,100231.64
2018-12-12T02:48:46.253Z,100240.37
2018-12-12T02:51:19.408Z,100235.84
2018-12-12T02:53:46.161Z,100234.55
2018-12-12T02:56:12.380Z,100243.42
2018-12-12T02:58:38.793Z,100235.05
2018-12-12T03:01:05.002Z,100235.80
2018-12-12T03:03:31.319Z,100235.41
2018-12-12T03:05:57.546Z,100238.09
2018-12-12T03:08:23.671Z,100240.46
2018-12-12T03:10:49.898Z,100246.70
2018-12-12T03:13:16.136Z,100245.87
2018-12-12T03:15:42.352Z,100246.16
2018-12-12T03:18:08.511Z,100249.36
2018-12-12T03:20:34.848Z,100252.73
2018-12-12T03:23:00.934Z,100246.17
2018-12-12T03:25:27.030Z,100256.17
2018-12-12T03:27:53.193Z,100251.89
2018-12-12T03:30:19.429Z,100255.95
2018-12-12T03:32:45.542Z,100246.70
2018-12-12T03:35:11.811Z,100257.47
2018-12-12T03:37:37.969Z,100255.78
2018-12-12T03:40:05.216Z,100260.25
2018-12-12T03:42:32.003Z,100261.20
2018-12-12T03:44:58.130Z,100253.93
2018-12-12T03:47:24.598Z,100261.31
2018-12-12T03:49:51.773Z,100258.38
2018-12-12T03:52:17.909Z,100258.27
2018-12-12T03:54:44.099Z,100266.95
2018-12-12T03:57:10.250Z,100260.42
2018-12-12T03:59:36.453Z,100258.32
2018-12-12T04:02:02.919Z,100259.02
2018-12-12T04:04:29.282Z,100259.95
2018-12-12T04:06:55.416Z,100266.95
2018-12-12T04:09:21.545Z,100265.41
2018-12-12T04:11:47.760Z,100260.20
2018-12-12T04:14:14.070Z,100267.54
2018-12-12T04:16:41.295Z,100275.36
2018-12-12T04:19:07.634Z,100268.74
2018-12-12T04:21:34.031Z,100266.47
2018-12-12T04:24:00.300Z,100261.36
2018-12-12T04:26:26.606Z,100274.34
2018-12-12T04:28:52.770Z,100270.72
2018-12-12T04:31:18.993Z,100268.13
2018-12-12T04:33:45.182Z,100284.02
2018-12-12T04:36:11.482Z,100285.92
2018-12-12T04:38:37.634Z,100291.39
2018-12-12T04:41:03.884Z,100289.77
2018-12-12T04:43:31.039Z,100293.14
2018-12-12T04:45:57.424Z,100297.03
2018-12-12T04:48:23.593Z,100300.70
2018-12-12T04:50:50.839Z,100301.16
2018-12-12T04:53:17.898Z,100307.11
2018-12-12T04:55:45.069Z,100304.22
2018-12-12T04:58:12.012Z,100300.64
2018-12-12T05:00:38.396Z,100303.95
2018-12-12T05:03:05.115Z,100302.20
2018-12-12T05:05:32.621Z,100305.65
2018-12-12T05:07:58.727Z,100306.52
2018-12-12T05:10:24.963Z,100308.89
2018-12-12T05:12:51.241Z,100304.59
2018-12-12T05:15:18.465Z,100313.75
2018-12-12T05:17:44.660Z,100311.71
2018-12-12T05:20:10.837Z,100309.73
2018-12-12T05:22:36.965Z,100315.95
2018-12-12T05:25:03.786Z,100310.60
2018-12-12T05:27:31.933Z,100302.38
2018-12-12T05:29:59.998Z,100301.59
2018-12-12T05:32:26.573Z,100302.58
2018-12-12T05:34:52.733Z,100303.27
2018-12-12T05:37:18.955Z,100305.85
2018-12-12T05:39:52.454Z,100321.56
2018-12-12T05:42:19.724Z,100320.23
2018-12-12T05:44:46.017Z,100314.63
2018-12-12T05:47:12.321Z,100309.08
2018-12-12T05:49:39.478Z,100316.17
2018-12-12T05:52:05.757Z,100319.36
2018-12-12T05:54:31.869Z,100306.27
2018-12-12T05:56:58.573Z,100314.95
2018-12-12T05:59:27.573Z,100319.70
2018-12-12T06:01:54.033Z,100324.84
2018-12-12T06:04:20.429Z,100327.19
2018-12-12T06:06:46.584Z,100332.34
2018-12-12T06:09:13.181Z,100333.69
2018-12-12T06:11:39.446Z,100335.28
2018-12-12T06:14:05.657Z,100340.48
2018-12-12T06:16:31.965Z,100342.91
2018-12-12T06:18:58.164Z,100342.22
2018-12-12T06:21:24.393Z,100342.34
2018-12-12T06:23:50.623Z,100341.28
2018-12-12T06:26:16.910Z,100349.07
2018-12-12T06:28:43.985Z,100354.75
2018-12-12T06:31:10.368Z,100354.31
2018-12-12T06:33:36.628Z,100351.91
2018-12-12T06:36:02.912Z,100355.22
2018-12-12T06:38:29.910Z,100352.52
2018-12-12T06:40:57.794Z,100361.92
2018-12-12T06:43:24.079Z,100364.58
2018-12-12T06:45:50.293Z,100356.72
2018-12-12T06:48:16.458Z,100357.86
2018-12-12T06:50:42.606Z,100360.11
2018-12-12T06:53:08.907Z,100372.31
2018-12-12T06:55:35.171Z,100372.72
2018-12-12T06:58:01.565Z,100371.64
2018-12-12T07:00:27.938Z,100371.91
2018-12-12T07:02:54.231Z,100371.70
2018-12-12T07:05:20.437Z,100372.25
2018-12-12T07:07:46.716Z,100376.06
2018-12-12T07:10:13.121Z,100379.44
2018-12-12T07:12:40.170Z,100385.21
2018-12-12T07:15:06.497Z,100374.20
2018-12-12T07:17:32.893Z,100384.36
2018-12-12T07:19:59.301Z,100385.86
2018-12-12T07:22:25.547Z,100383.15
2018-12-12T07:24:51.815Z,100393.47
2018-12-12T07:27:18.023Z,100396.05
2018-12-12T07:29:44.691Z,100403.97
2018-12-12T07:32:11.225Z,100399.13
2018-12-12T07:34:37.386Z,100403.98
2018-12-12T07:37:04.494Z,100408.49
2018-12-12T07:39:30.641Z,100409.52
2018-12-12T07:42:00.857Z,100410.81
2018-12-12T07:44:27.088Z,100413.91
2018-12-12T07:46:53.817Z,100416.16
2018-12-12T07:49:20.872Z,100414.00
2018-12-12T07:51:47.123Z,100415.80
2018-12-12T07:54:13.225Z,100424.98
2018-12-12T07:56:39.426Z,100426.28
2018-12-12T07:59:05.708Z,100425.42
2018-12-12T08:01:31.865Z,100428.27
2018-12-12T08:03:58.094Z,100433.67
2018-12-12T08:06:24.382Z,100428.13
2018-12-12T08:08:50.701Z,100422.59
2018-12-12T08:11:16.882Z,100431.62
2018-12-12T08:13:43.129Z,100445.85
2018-12-12T08:16:09.338Z,100439.95
2018-12-12T08:18:35.613Z,100449.14
2018-12-12T08:21:02.048Z,100453.16
2018-12-12T08:23:28.973Z,100457.98
2018-12-12T08:25:55.378Z,100450.58
2018-12-12T08:28:22.451Z,100463.11
2018-12-12T08:30:48.809Z,100461.88
2018-12-12T08:33:15.111Z,100465.98
2018-12-12T08:35:41.358Z,100464.88
2018-12-12T08:38:07.454Z,100471.14
2018-12-12T08:40:33.609Z,100475.17
2018-12-12T08:42:59.899Z,100476.98
2018-12-12T08:45:26.025Z,100475.73
2018-12-12T08:47:52.977Z,100482.42
2018-12-12T08:50:19.198Z,100485.68
2018-12-12T08:52:45.536Z,100486.48
2018-12-12T08:55:17.440Z,100488.53
2018-12-12T08:57:40.001Z,100488.38
2018-12-12T09:00:06.805Z,100491.41
2018-12-12T09:02:33.151Z,100498.44
2018-12-12T09:04:59.307Z,100493.83
2018-12-12T09:07:25.435Z,100497.96
2018-12-12T09:09:51.700Z,100498.73
2018-12-12T09:12:17.920Z,100504.19
2018-12-12T09:14:44.064Z,100457.22
2018-12-12T09:17:10.285Z,100508.97
2018-12-12T09:19:36.477Z,100510.39
2018-12-12T09:22:02.799Z,100510.88
2018-12-12T09:24:28.893Z,100514.02
2018-12-12T09:26:54.987Z,100512.52
2018-12-12T09:29:21.131Z,100505.01
2018-12-12T09:31:48.231Z,100511.89
2018-12-12T09:34:14.441Z,100512.98
2018-12-12T09:36:40.549Z,100518.12
2018-12-12T09:39:07.718Z,100514.39
2018-12-12T09:41:34.096Z,100510.89
2018-12-12T09:44:00.336Z,100514.78
2018-12-12T09:46:26.485Z,100508.24
2018-12-12T09:48:52.676Z,100513.98
2018-12-12T09:51:18.943Z,100513.12
2018-12-12T09:53:45.120Z,100512.08
2018-12-12T09:56:11.333Z,100510.92
2018-12-12T09:58:37.559Z,100515.47
2018-12-12T10:01:03.958Z,100514.30
2018-12-12T10:03:31.292Z,100509.05
2018-12-12T10:05:57.789Z,100515.66
2018-12-12T10:08:24.263Z,100513.20
2018-12-12T10:10:50.475Z,100510.58
2018-12-12T10:13:16.863Z,100509.69
2018-12-12T10:15:43.032Z,100513.77
2018-12-12T10:18:09.374Z,100511.56
2018-12-12T10:20:35.666Z,100513.12
2018-12-12T10:23:01.761Z,100512.75
2018-12-12T10:25:27.979Z,100512.63
2018-12-12T10:27:54.110Z,100512.20
2018-12-12T10:30:20.304Z,100513.67
2018-12-12T10:32:46.538Z,100513.22
2018-12-12T10:35:12.772Z,100513.05
2018-12-12T10:37:38.900Z,100518.78
2018-12-12T10:40:05.383Z,100520.02
2018-12-12T10:42:31.550Z,100523.94
2018-12-12T10:44:57.832Z,100529.14
2018-12-12T10:47:23.975Z,100525.05
2018-12-12T10:49:50.235Z,100525.83
2018-12-12T10:52:16.649Z,100528.05
2018-12-12T10:54:43.308Z,100522.89
2018-12-12T10:57:09.654Z,100533.09
2018-12-12T10:59:35.782Z,100527.03
2018-12-12T11:05:11.460Z,100525.58
2018-12-12T11:07:37.698Z,100524.20
2018-12-12T11:10:04.399Z,100526.47
2018-12-12T11:12:31.406Z,100533.53
2018-12-12T11:14:57.699Z,100528.16
2018-12-12T11:17:24.006Z,100529.30
2018-12-12T11:19:50.891Z,100531.55
2018-12-12T11:22:17.079Z,100529.75
2018-12-12T11:24:43.383Z,100531.33
2018-12-12T11:27:09.601Z,100541.52
2018-12-12T11:29:43.751Z,100539.89
2018-12-12T11:32:10.093Z,100538.36
2018-12-12T11:34:36.394Z,100544.67
2018-12-12T11:37:03.664Z,100536.16
2018-12-12T11:39:29.766Z,100538.08
2018-12-12T11:41:55.876Z,100539.03
2018-12-12T11:44:21.962Z,100539.11
2018-12-12T11:46:48.177Z,100487.11
2018-12-12T11:49:14.429Z,100534.48
2018-12-12T11:51:42.173Z,100538.39
2018-12-12T11:54:08.400Z,100543.41
2018-12-12T11:56:34.661Z,100547.52
2018-12-12T11:59:00.917Z,100546.30
2018-12-12T12:01:27.148Z,100542.92
2018-12-12T12:03:56.766Z,100544.29
2018-12-12T12:06:22.599Z,100545.04
2018-12-12T12:08:49.584Z,100540.91
2018-12-12T12:11:15.807Z,100538.64
2018-12-12T12:13:41.938Z,100541.94
2018-12-12T12:16:08.185Z,100529.57
2018-12-12T12:18:34.516Z,100541.05
2018-12-12T12:21:00.825Z,100545.18
2018-12-12T12:23:27.056Z,100549.05
2018-12-12T12:25:53.253Z,100546.41
2018-12-12T12:28:19.464Z,100540.06
2018-12-12T12:30:45.537Z,100544.29
2018-12-12T12:33:11.697Z,100540.69
2018-12-12T12:35:37.804Z,100539.39
2018-12-12T12:38:04.045Z,100539.43
2018-12-12T12:40:30.195Z,100540.06
2018-12-12T12:42:56.429Z,100539.74
2018-12-12T12:45:23.027Z,100534.03
2018-12-12T12:47:49.211Z,100537.10
2018-12-12T12:50:15.400Z,100539.02
2018-12-12T12:52:42.315Z,100535.34
2018-12-12T12:55:09.597Z,100537.20
2018-12-12T12:57:35.699Z,100547.00
2018-12-12T13:00:03.114Z,100546.99
2018-12-12T13:02:29.301Z,100540.35
2018-12-12T13:04:55.454Z,100541.91
2018-12-12T13:07:21.782Z,100533.64
2018-12-12T13:09:48.934Z,100530.42
2018-12-12T13:12:15.156Z,100536.41
2018-12-12T13:14:41.406Z,100539.04
2018-12-12T13:17:07.578Z,100539.98
2018-12-12T13:19:34.477Z,100540.33
2018-12-12T13:22:00.722Z,100544.16
2018-12-12T13:24:26.930Z,100549.53
2018-12-12T13:26:53.965Z,100538.89
2018-12-12T13:29:20.503Z,100545.23
2018-12-12T13:31:46.799Z,100537.65
2018-12-12T13:34:16.260Z,100542.73
2018-12-12T13:36:41.145Z,100541.95
2018-12-12T13:39:08.161Z,100542.11
2018-12-12T13:41:34.623Z,100547.02
2018-12-12T13:44:01.067Z,100549.50
2018-12-12T13:46:27.286Z,100555.59
2018-12-12T13:49:00.639Z,100553.80
2018-12-12T13:51:27.741Z,100555.70
2018-12-12T13:53:53.928Z,100557.44
2018-12-12T13:56:20.174Z,100555.08
2018-12-12T13:58:47.278Z,100565.54
2018-12-12T14:01:14.626Z,100570.06
2018-12-12T14:03:40.911Z,100568.70
2018-12-12T14:06:07.144Z,100566.95
2018-12-12T14:08:33.431Z,100564.52
2018-12-12T14:10:59.755Z,100568.05
2018-12-12T14:13:25.923Z,100570.20
2018-12-12T14:15:52.078Z,100570.38
2018-12-12T14:18:18.225Z,100569.47
2018-12-12T14:20:45.279Z,100565.44
2018-12-12T14:23:11.470Z,100565.28
2018-12-12T14:25:37.623Z,100561.48
2018-12-12T14:28:03.817Z,100565.35
2018-12-12T14:30:30.174Z,100562.25
2018-12-12T14:32:56.402Z,100552.17
2018-12-12T14:35:22.867Z,100559.73
2018-12-12T14:37:49.000Z,100567.52
2018-12-12T14:40:15.241Z,100567.90
2018-12-12T14:42:41.398Z,100570.09
2018-12-12T14:45:08.435Z,100574.64
2018-12-12T14:47:34.533Z,100575.50
2018-12-12T14:50:00.731Z,100528.17
2018-12-12T14:52:29.487Z,100583.29
2018-12-12T14:54:55.659Z,100572.61
2018-12-12T14:57:22.069Z,100578.45
2018-12-12T14:59:49.293Z,100579.64
2018-12-12T15:02:15.552Z,100581.34
2018-12-12T15:04:42.972Z,100583.43
2018-12-12T15:07:11.057Z,100574.73
2018-12-12T15:09:38.472Z,100580.38
2018-12-12T15:12:05.132Z,100588.84
2018-12-12T15:14:32.974Z,100581.79
2018-12-12T15:16:59.415Z,100578.82
2018-12-12T15:19:29.568Z,100584.47
2018-12-12T15:21:57.213Z,100586.81
2018-12-12T15:24:25.314Z,100594.53
2018-12-12T15:26:51.690Z,100595.27
2018-12-12T15:29:18.109Z,100596.56
2018-12-12T15:34:48.671Z,100595.59
2018-12-12T15:37:18.538Z,100600.97
2018-12-12T15:42:45.993Z,100608.12
2018-12-12T15:45:27.022Z,100608.12
2018-12-12T15:47:56.936Z,100612.12
2018-12-12T15:50:50.654Z,100611.48
2018-12-12T15:59:40.538Z,100614.72
2018-12-12T16:11:26.425Z,100612.86
2018-12-12T16:14:20.712Z,100610.08
2018-12-12T16:23:14.771Z,100617.91
2018-12-12T16:25:58.966Z,100622.16
2018-12-12T16:31:33.643Z,100616.98
2018-12-12T16:37:06.795Z,100629.61
2018-12-12T16:48:49.696Z,100634.09
2018-12-12T16:54:27.539Z,100642.65
2018-12-12T16:56:58.706Z,100644.72
2018-12-12T16:59:52.875Z,100647.55
2018-12-12T17:05:07.905Z,100644.72
2018-12-12T17:07:34.036Z,100650.08
2018-12-12T17:10:01.210Z,100648.73
2018-12-12T17:12:27.429Z,100649.13
2018-12-12T17:14:53.534Z,100643.41
2018-12-12T17:17:20.483Z,100645.71
2018-12-12T17:19:47.665Z,100642.34
2018-12-12T17:22:13.832Z,100634.28
2018-12-12T17:24:40.091Z,100631.83
2018-12-12T17:27:07.458Z,100634.58
2018-12-12T17:29:33.588Z,100628.36
2018-12-12T17:31:59.808Z,100629.87
2018-12-12T17:34:26.919Z,100633.58
2018-12-12T17:36:53.134Z,100629.58
2018-12-12T17:39:21.278Z,100548.85
2018-12-12T17:41:49.086Z,100632.29
2018-12-12T17:44:15.242Z,100638.27
2018-12-12T17:46:42.631Z,100639.28
2018-12-12T17:49:09.645Z,100646.04
2018-12-12T17:51:35.868Z,100655.66
2018-12-12T17:54:03.228Z,100649.15
2018-12-12T17:56:29.349Z,100647.58
2018-12-12T17:58:56.297Z,100653.08
2018-12-12T18:01:22.650Z,100651.14
2018-12-12T18:03:48.954Z,100655.80
2018-12-12T18:06:15.180Z,100650.58
2018-12-12T18:08:41.313Z,100652.08
2018-12-12T18:11:08.419Z,100650.14
2018-12-12T18:13:34.510Z,100646.90
2018-12-12T18:16:00.616Z,100645.80
2018-12-12T18:18:27.024Z,100645.27
2018-12-12T18:20:54.258Z,100649.03
2018-12-12T18:23:21.181Z,100656.64
2018-12-12T18:25:49.368Z,100657.53
2018-12-12T18:28:16.516Z,100663.16
2018-12-12T18:30:42.612Z,100662.33
2018-12-12T18:33:08.766Z,100665.21
2018-12-12T18:35:35.189Z,100665.83
2018-12-12T18:38:02.246Z,100667.33
2018-12-12T18:40:28.394Z,100661.55
2018-12-12T18:42:54.531Z,100660.88
2018-12-12T18:45:20.728Z,100667.48
2018-12-12T18:47:47.862Z,100661.98
2018-12-12T18:50:14.136Z,100662.79
2018-12-12T18:52:40.444Z,100650.70
2018-12-12T18:55:06.875Z,100669.42
2018-12-12T18:57:33.040Z,100670.12
2018-12-12T18:59:59.531Z,100663.13
2018-12-12T19:02:25.741Z,100663.28
2018-12-12T19:04:51.981Z,100666.27
2018-12-12T19:07:18.344Z,100667.41
2018-12-12T19:09:44.624Z,100678.17
2018-12-12T19:12:11.816Z,100680.81
2018-12-12T19:14:41.022Z,100660.69
2018-12-12T19:17:07.169Z,100674.75
2018-12-12T19:19:33.293Z,100671.15
2018-12-12T19:21:59.584Z,100681.72
2018-12-12T19:24:25.733Z,100690.05
2018-12-12T19:26:52.001Z,100690.50
2018-12-12T19:29:18.143Z,100693.20
2018-12-12T19:31:44.494Z,100702.95
2018-12-12T19:34:10.669Z,100688.94
2018-12-12T19:36:36.817Z,100700.72
2018-12-12T19:39:06.058Z,100702.52
2018-12-12T19:41:32.534Z,100705.03
2018-12-12T19:43:58.967Z,100703.02
2018-12-12T19:46:25.335Z,100698.96
2018-12-12T19:48:51.480Z,100694.67
2018-12-12T19:51:17.861Z,100691.23
2018-12-12T19:53:44.075Z,100688.89
2018-12-12T19:56:10.410Z,100688.50
2018-12-12T19:58:36.681Z,100688.43
2018-12-12T20:01:03.054Z,100688.40
2018-12-12T20:03:29.435Z,100699.05
2018-12-12T20:05:55.669Z,100691.58
2018-12-12T20:08:21.998Z,100694.90
2018-12-12T20:10:48.275Z,100701.77
2018-12-12T20:13:14.586Z,100696.48
2018-12-12T20:15:43.786Z,100697.86
2018-12-12T20:18:10.165Z,100697.31
2018-12-12T20:20:36.509Z,100701.41
2018-12-12T20:23:02.824Z,100701.58
2018-12-12T20:25:28.957Z,100706.62
2018-12-12T20:27:55.128Z,100702.61
2018-12-12T20:30:21.451Z,100703.40
2018-12-12T20:32:47.746Z,100707.23
2018-12-12T20:35:14.191Z,100699.36
2018-12-12T20:37:40.361Z,100707.28
2018-12-12T20:40:06.802Z,100706.17
2018-12-12T20:42:33.188Z,100703.48
2018-12-12T20:44:59.460Z,100701.88
2018-12-12T20:47:25.662Z,100708.33
2018-12-12T20:49:51.789Z,100710.80
2018-12-12T20:52:17.940Z,100704.16
2018-12-12T20:54:44.119Z,100696.48
2018-12-12T21:00:06.619Z,100710.70
2018-12-12T21:02:33.021Z,100702.92
2018-12-12T21:04:59.245Z,100699.44
2018-12-12T21:07:25.391Z,100704.41
2018-12-12T21:09:51.512Z,100700.75
2018-12-12T21:12:17.917Z,100695.34
2018-12-12T21:14:44.820Z,100696.92
2018-12-12T21:17:10.967Z,100697.89
2018-12-12T21:19:38.252Z,100702.81
2018-12-12T21:22:11.882Z,100699.55
2018-12-12T21:24:38.149Z,100704.34
2018-12-12T21:27:04.281Z,100708.85
2018-12-12T21:29:30.843Z,100703.88
2018-12-12T21:31:56.982Z,100701.56
2018-12-12T21:34:23.126Z,100700.36
2018-12-12T21:36:49.331Z,100700.27
2018-12-12T21:39:22.677Z,100699.59
2018-12-12T21:41:48.841Z,100696.94
2018-12-12T21:44:15.134Z,100700.76
2018-12-12T21:46:41.254Z,100698.52
2018-12-12T21:49:07.512Z,100701.56
2018-12-12T21:51:33.612Z,100705.05
2018-12-12T21:53:59.731Z,100696.47
2018-12-12T21:56:25.929Z,100698.61
2018-12-12T21:58:52.267Z,100691.15
2018-12-12T22:01:19.113Z,100683.92
2018-12-12T22:03:45.305Z,100683.67
2018-12-12T22:06:11.555Z,100686.75
2018-12-12T22:08:37.717Z,100687.56
2018-12-12T22:11:04.058Z,100690.38
2018-12-12T22:13:30.382Z,100696.56
2018-12-12T22:15:57.469Z,100693.34
2018-12-12T22:18:23.658Z,100698.23
2018-12-12T22:20:49.785Z,100696.84
2018-12-12T22:23:16.989Z,100694.93
2018-12-12T22:25:43.123Z,100693.36
2018-12-12T22:28:09.297Z,100696.23
2018-12-12T22:30:35.518Z,100689.45
2018-12-12T22:33:01.640Z,100692.36
2018-12-12T22:35:28.284Z,100689.02
2018-12-12T22:37:54.641Z,100692.30
2018-12-12T22:40:20.925Z,100699.31
2018-12-12T22:42:47.069Z,100692.91
2018-12-12T22:45:13.227Z,100698.19
2018-12-12T22:47:39.347Z,100696.55
2018-12-12T22:50:05.773Z,100692.59
2018-12-12T22:52:31.902Z,100695.31
2018-12-12T22:54:58.045Z,100693.97
2018-12-12T22:57:24.170Z,100699.86
2018-12-12T22:59:50.447Z,100694.61
2018-12-12T23:02:16.610Z,100692.80
2018-12-12T23:04:42.815Z,100690.12
2018-12-12T23:07:08.940Z,100692.51
2018-12-12T23:09:35.116Z,100693.56
2018-12-12T23:12:01.635Z,100695.38
2018-12-12T23:14:27.880Z,100695.35
2018-12-12T23:16:54.041Z,100692.32
2018-12-12T23:19:20.185Z,100694.95
2018-12-12T23:21:46.418Z,100696.45
2018-12-12T23:24:12.729Z,100696.21
2018-12-12T23:26:38.871Z,100640.06
2018-12-12T23:29:05.052Z,100696.77
2018-12-12T23:31:31.261Z,100679.97
2018-12-12T23:33:57.520Z,100693.55
2018-12-12T23:36:26.885Z,100692.17
2018-12-12T23:38:52.026Z,100689.80
2018-12-12T23:41:18.242Z,100695.73
2018-12-12T23:43:44.397Z,100692.34
2018-12-12T23:46:10.638Z,100686.48
2018-12-12T23:48:36.759Z,100692.44
2018-12-12T23:51:02.905Z,100687.14
2018-12-12T23:53:28.996Z,100687.62
2018-12-12T23:55:55.199Z,100683.53
2018-12-12T23:58:21.389Z,100618.56
